createdAt,value
2018-11-20T00:01:40.395Z,10.53
2018-11-20T00:07:01.814Z,12.60
2018-11-20T00:12:10.170Z,9.23
2018-11-20T00:17:34.652Z,12.67
2018-11-20T00:22:43.752Z,11.50
2018-11-20T00:27:47.779Z,9.70
2018-11-20T00:32:59.122Z,12.77
2018-11-20T00:38:01.619Z,14.70
2018-11-20T00:43:19.887Z,11.57
2018-11-20T00:48:45.793Z,14.50
2018-11-20T00:53:48.376Z,13.80
2018-11-20T00:58:48.426Z,16.60
2018-11-20T01:03:56.354Z,13.83
2018-11-20T01:09:03.330Z,12.73
2018-11-20T01:14:09.581Z,13.80
2018-11-20T01:19:13.868Z,17.13
2018-11-20T01:24:11.737Z,14.57
2018-11-20T01:29:20.364Z,14.73
2018-11-20T01:34:46.767Z,17.30
2018-11-20T01:40:00.136Z,12.83
2018-11-20T01:45:06.196Z,11.20
2018-11-20T01:50:14.783Z,8.70
2018-11-20T01:55:24.800Z,18.50
2018-11-20T02:00:31.236Z,14.57
2018-11-20T02:05:34.219Z,10.70
2018-11-20T02:10:48.503Z,7.10
2018-11-20T02:16:14.156Z,13.27
2018-11-20T02:21:24.807Z,8.80
2018-11-20T02:26:31.319Z,11.97
2018-11-20T02:31:57.465Z,10.00
2018-11-20T02:37:17.085Z,9.13
2018-11-20T02:42:39.752Z,12.53
2018-11-20T02:48:04.452Z,11.30
2018-11-20T02:53:12.615Z,12.87
2018-11-20T02:58:17.762Z,12.93
2018-11-20T03:03:21.507Z,11.47
2018-11-20T03:08:47.421Z,11.13
2018-11-20T03:13:55.252Z,12.00
2018-11-20T03:19:13.460Z,12.50
2018-11-20T03:24:30.391Z,12.27
2018-11-20T03:30:13.180Z,12.30
2018-11-20T03:35:19.102Z,13.73
2018-11-20T03:40:31.686Z,12.27
2018-11-20T03:45:51.146Z,17.47
2018-11-20T03:50:57.513Z,27.10
2018-11-20T03:56:06.071Z,32.00
2018-11-20T04:01:16.622Z,21.60
2018-11-20T04:06:24.347Z,17.70
2018-11-20T04:11:28.030Z,18.57
2018-11-20T04:16:34.648Z,23.97
2018-11-20T04:21:40.835Z,17.60
2018-11-20T04:27:03.957Z,28.87
2018-11-20T04:32:12.818Z,15.07
2018-11-20T04:37:25.021Z,22.07
2018-11-20T04:42:39.007Z,11.37
2018-11-20T04:47:45.004Z,13.10
2018-11-20T04:52:52.853Z,15.40
2018-11-20T04:58:02.223Z,23.20
2018-11-20T05:03:10.452Z,14.37
2018-11-20T05:08:33.527Z,10.23
2018-11-20T05:13:43.800Z,12.97
2018-11-20T05:18:52.127Z,15.90
2018-11-20T05:23:59.748Z,16.90
2018-11-20T05:29:09.777Z,19.67
2018-11-20T05:34:37.048Z,16.10
2018-11-20T05:39:42.606Z,22.80
2018-11-20T05:45:02.047Z,16.57
2018-11-20T05:50:07.501Z,18.10
2018-11-20T05:55:16.755Z,15.43
2018-11-20T06:00:20.598Z,19.03
2018-11-20T06:05:29.125Z,16.13
2018-11-20T06:10:44.113Z,14.73
2018-11-20T06:15:48.565Z,20.07
2018-11-20T06:20:54.571Z,20.30
2018-11-20T06:25:59.217Z,15.77
2018-11-20T06:31:07.185Z,21.23
2018-11-20T06:36:17.713Z,17.17
2018-11-20T06:41:22.830Z,17.33
2018-11-20T06:46:44.039Z,17.60
2018-11-20T06:52:08.110Z,12.33
2018-11-20T06:57:30.085Z,17.37
2018-11-20T07:02:53.900Z,23.03
2018-11-20T07:08:20.262Z,13.67
2018-11-20T07:14:00.400Z,20.73
2018-11-20T07:19:03.278Z,17.93
2018-11-20T07:24:09.629Z,18.87
2018-11-20T07:29:23.830Z,23.43
2018-11-20T07:34:38.055Z,20.30
2018-11-20T07:39:53.977Z,25.07
2018-11-20T07:45:14.202Z,27.90
2018-11-20T07:50:22.206Z,24.40
2018-11-20T07:55:35.986Z,28.67
2018-11-20T08:00:47.272Z,16.97
2018-11-20T08:06:01.248Z,18.17
2018-11-20T08:12:55.928Z,24.13
2018-11-20T08:18:02.638Z,17.50
2018-11-20T08:23:16.339Z,18.40
2018-11-20T08:28:24.954Z,17.70
2018-11-20T08:33:38.804Z,21.83
2018-11-20T08:38:52.896Z,19.63
2018-11-20T08:43:56.549Z,16.63
2018-11-20T08:49:01.200Z,16.30
2018-11-20T08:54:02.967Z,21.30
2018-11-20T08:59:17.812Z,14.17
2018-11-20T09:04:33.981Z,16.37
2018-11-20T09:09:41.802Z,20.50
2018-11-20T09:14:44.726Z,22.37
2018-11-20T09:20:11.793Z,20.07
2018-11-20T09:25:16.402Z,17.67
2018-11-20T09:30:41.012Z,18.53
2018-11-20T09:35:45.900Z,36.70
2018-11-20T09:41:41.542Z,16.17
2018-11-20T09:46:58.276Z,17.10
2018-11-20T09:52:03.219Z,16.23
2018-11-20T09:57:08.694Z,16.70
2018-11-20T10:02:24.927Z,19.10
2018-11-20T10:07:29.726Z,18.97
2018-11-20T10:12:52.045Z,21.27
2018-11-20T10:18:01.375Z,18.37
2018-11-20T10:23:06.927Z,21.13
2018-11-20T10:28:14.904Z,27.00
2018-11-20T10:33:32.812Z,26.07
2018-11-20T10:38:37.532Z,22.67
2018-11-20T10:43:42.532Z,21.47
2018-11-20T10:48:49.594Z,36.43
2018-11-20T10:53:55.374Z,27.77
2018-11-20T10:59:04.147Z,23.60
2018-11-20T11:04:18.502Z,21.27
2018-11-20T11:09:38.579Z,23.43
2018-11-20T11:14:45.355Z,30.93
2018-11-20T11:20:06.237Z,24.37
2018-11-20T11:25:28.356Z,22.03
2018-11-20T11:30:42.986Z,22.57
2018-11-20T11:35:46.776Z,45.03
2018-11-20T11:40:52.502Z,24.93
2018-11-20T11:46:03.631Z,27.27
2018-11-20T11:51:09.152Z,26.37
2018-11-20T11:56:11.694Z,26.70
2018-11-20T12:01:27.233Z,24.03
2018-11-20T12:06:38.681Z,20.20
2018-11-20T12:11:52.376Z,21.13
2018-11-20T12:17:09.124Z,21.03
2018-11-20T12:22:15.905Z,21.63
2018-11-20T12:27:27.246Z,22.57
2018-11-20T12:32:32.746Z,22.67
2018-11-20T12:38:01.763Z,21.13
2018-11-20T12:43:04.611Z,28.17
2018-11-20T12:48:12.189Z,19.53
2018-11-20T12:53:15.312Z,19.17
2018-11-20T12:58:22.150Z,25.73
2018-11-20T13:03:41.125Z,24.57
2018-11-20T13:08:58.569Z,18.10
2018-11-20T13:14:04.486Z,21.73
2018-11-20T13:19:12.588Z,21.10
2018-11-20T13:24:25.709Z,24.33
2018-11-20T13:29:31.855Z,27.10
2018-11-20T13:34:51.213Z,46.93
2018-11-20T13:39:54.485Z,30.77
2018-11-20T13:45:04.373Z,39.33
2018-11-20T13:50:14.064Z,39.37
2018-11-20T13:55:32.169Z,28.10
2018-11-20T14:00:59.445Z,36.87
2018-11-20T14:06:21.464Z,52.73
2018-11-20T14:11:24.512Z,45.73
2018-11-20T14:16:32.897Z,31.70
2018-11-20T14:21:57.090Z,24.13
2018-11-20T14:27:13.581Z,35.33
2018-11-20T14:32:33.029Z,29.23
2018-11-20T14:37:48.133Z,31.27
2018-11-20T14:42:51.513Z,33.20
2018-11-20T14:47:57.491Z,29.27
2018-11-20T14:53:19.358Z,33.57
2018-11-20T14:58:29.089Z,42.13
2018-11-20T15:03:46.333Z,40.67
2018-11-20T15:09:20.203Z,40.40
2018-11-20T15:14:26.461Z,41.50
2018-11-20T15:19:32.606Z,50.03
2018-11-20T15:24:36.991Z,48.33
2018-11-20T15:30:00.638Z,42.90
2018-11-20T15:35:10.442Z,30.73
2018-11-20T15:40:36.547Z,30.47
2018-11-20T15:45:42.252Z,35.83
2018-11-20T15:50:47.577Z,35.80
2018-11-20T15:55:49.292Z,39.77
2018-11-20T16:00:59.008Z,38.23
2018-11-20T16:06:00.953Z,29.30
2018-11-20T16:11:05.541Z,35.97
2018-11-20T16:16:13.751Z,52.33
2018-11-20T16:21:33.645Z,36.07
2018-11-20T16:26:34.909Z,29.47
2018-11-20T16:31:38.182Z,30.93
2018-11-20T16:37:06.989Z,40.37
2018-11-20T16:42:20.143Z,30.20
2018-11-20T16:47:25.881Z,38.13
2018-11-20T16:52:29.364Z,39.70
2018-11-20T16:57:44.545Z,30.13
2018-11-20T17:02:51.664Z,30.57
2018-11-20T17:08:12.379Z,38.30
2018-11-20T17:13:13.067Z,37.83
2018-11-20T17:18:23.034Z,45.80
2018-11-20T17:23:36.897Z,36.53
2018-11-20T17:29:06.121Z,53.03
2018-11-20T17:34:13.230Z,40.90
2018-11-20T17:39:34.420Z,38.43
2018-11-20T17:45:03.314Z,47.77
2018-11-20T17:50:21.360Z,34.03
2018-11-20T17:55:33.516Z,31.73
2018-11-20T18:00:39.250Z,33.43
2018-11-20T18:05:58.111Z,36.60
2018-11-20T18:11:16.118Z,43.07
2018-11-20T18:16:29.020Z,34.97
2018-11-20T18:21:37.029Z,43.53
2018-11-20T18:26:38.179Z,53.50
2018-11-20T18:31:47.826Z,49.43
2018-11-20T18:36:58.604Z,52.07
2018-11-20T18:42:09.661Z,44.80
2018-11-20T18:47:06.573Z,44.13
2018-11-20T18:52:31.478Z,42.93
2018-11-20T18:57:42.640Z,42.07
2018-11-20T19:03:04.153Z,44.73
2018-11-20T19:08:06.369Z,43.37
2018-11-20T19:13:28.096Z,46.43
2018-11-20T19:19:09.445Z,53.10
2018-11-20T19:24:22.135Z,63.47
2018-11-20T19:29:29.742Z,59.33
2018-11-20T19:34:42.580Z,58.57
2018-11-20T19:39:50.031Z,83.03
2018-11-20T19:44:58.073Z,45.00
2018-11-20T19:50:24.161Z,68.43
2018-11-20T19:55:39.225Z,54.47
2018-11-20T20:00:53.121Z,53.00
2018-11-20T20:05:59.128Z,46.77
2018-11-20T20:11:22.194Z,47.60
2018-11-20T20:16:28.333Z,44.30
2018-11-20T20:21:35.232Z,44.60
2018-11-20T20:26:41.192Z,47.00
2018-11-20T20:31:44.835Z,48.90
2018-11-20T20:36:48.567Z,43.63
2018-11-20T20:41:55.042Z,41.27
2018-11-20T20:47:02.343Z,40.53
2018-11-20T20:52:06.304Z,40.97
2018-11-20T20:57:21.869Z,38.23
2018-11-20T21:02:30.266Z,38.73
2018-11-20T21:07:43.167Z,37.37
2018-11-20T21:12:46.633Z,39.57
2018-11-20T21:17:57.092Z,37.47
2018-11-20T21:23:20.324Z,32.50
2018-11-20T21:28:28.376Z,40.13
2018-11-20T21:33:51.451Z,45.27
2018-11-20T21:39:16.939Z,39.60
2018-11-20T21:44:37.047Z,40.77
2018-11-20T21:49:44.125Z,41.80
2018-11-20T21:54:49.346Z,47.67
2018-11-20T21:59:55.633Z,48.10
2018-11-20T22:05:00.523Z,47.87
2018-11-20T22:10:03.508Z,49.10
2018-11-20T22:15:09.304Z,56.00
2018-11-20T22:20:29.561Z,49.43
2018-11-20T22:25:34.896Z,56.77
2018-11-20T22:30:44.860Z,50.07
2018-11-20T22:35:50.663Z,53.47
2018-11-20T22:40:57.562Z,40.07
2018-11-20T22:46:02.647Z,41.70
2018-11-20T22:51:15.702Z,39.43
2018-11-20T22:56:23.054Z,37.53
2018-11-20T23:01:31.796Z,40.90
2018-11-20T23:06:38.549Z,43.80
2018-11-20T23:11:26.725Z,40.17
2018-11-20T23:16:14.344Z,37.87
2018-11-20T23:21:02.035Z,34.80
2018-11-20T23:25:47.948Z,28.87
2018-11-20T23:30:37.712Z,34.00
2018-11-20T23:35:27.579Z,35.07
2018-11-20T23:40:15.501Z,35.13
2018-11-20T23:44:59.612Z,37.30
2018-11-20T23:49:44.447Z,31.27
2018-11-20T23:54:34.013Z,34.77
2018-11-20T23:59:23.589Z,29.17
